PWSweather.com
Personal Weather Stations
Station Observations
IVENETOL9
Brugine, BrugineIT 35020

BrugineBrugineIT 35020

Lat: 45.2975, Lon: 11.9962777

Elevation: 19

Station Type: Davis Vantage Pro2 Plus

http://www.meteobrugine.it/

Latest ConditionsUpdated 5:00:37 PM GMT+01:01 Friday, Jan 20, 2017
Currently Today's Max Today's Min Today's Average
Temperature 39.7°F4.3°C 42.8°F6.0°C 30.3°F-0.9°C 35.3°F1.8°C
Dew Point 29.6°F-1.3°C 30.2°F-1.0°C 22.9°F-5.1°C 25.6°F-3.6°C
Winds Calm Calm 3.5 mph NE5.6 kmh NE - 0.6 mph 1.0 kmh
Wind Gusts -- 10.0 mph16.1 kmh - -
Humidity 67% 74% 58% 68%
Pressure 30.46 in1031.5 mb 30.52 in1033.5 mb 30.46 in1031.5 mb -
Hour Temp Dew Point Humidity Winds Wind Gusts Pressure Precip Precip Rate Daily Precip Total
05:00 PM 39.7°F4.3°C 29.6°F-1.3°C 67% Calm Calm -- 30.46 in1031.5 mb - 0.00 in0.0 mm 0.00 in0.0 mm
04:45 PM 40.4°F4.7°C 29.9°F-1.2°C 66% Calm Calm -- 30.46 in1031.5 mb - 0.00 in0.0 mm 0.00 in0.0 mm
04:30 PM 40.8°F4.9°C 29.6°F-1.3°C 64% Calm Calm -- 30.46 in1031.5 mb - 0.00 in0.0 mm 0.00 in0.0 mm
04:15 PM 41.3°F5.2°C 29.6°F-1.3°C 63% 1.5 mph NE2.4 kmh NE 3.0 mph4.8 kmh 30.46 in1031.5 mb - 0.00 in0.0 mm 0.00 in0.0 mm
04:00 PM 41.5°F5.3°C 29.5°F-1.4°C 62% Calm Calm 2.0 mph3.2 kmh 30.47 in1031.8 mb - 0.00 in0.0 mm 0.00 in0.0 mm
03:45 PM 41.9°F5.5°C 29.4°F-1.4°C 61% 0.2 mph NE0.3 kmh NE 1.0 mph1.6 kmh 30.47 in1031.8 mb - 0.00 in0.0 mm 0.00 in0.0 mm
03:30 PM 42.3°F5.7°C 29.4°F-1.4°C 60% 1.4 mph N2.3 kmh N 5.0 mph8.0 kmh 30.47 in1031.8 mb - 0.00 in0.0 mm 0.00 in0.0 mm
03:15 PM 42.7°F5.9°C 30.2°F-1.0°C 61% 0.2 mph NE0.3 kmh NE 3.0 mph4.8 kmh 30.47 in1031.8 mb - 0.00 in0.0 mm 0.00 in0.0 mm
03:00 PM 42.8°F6.0°C 29.9°F-1.2°C 60% 0.5 mph NE0.8 kmh NE 3.0 mph4.8 kmh 30.48 in1032.2 mb - 0.00 in0.0 mm 0.00 in0.0 mm
02:45 PM 42.5°F5.8°C 30.0°F-1.1°C 61% 1.3 mph NE2.1 kmh NE 5.0 mph8.0 kmh 30.48 in1032.2 mb - 0.00 in0.0 mm 0.00 in0.0 mm
02:30 PM 42.4°F5.8°C 29.1°F-1.6°C 59% 3.5 mph NE5.6 kmh NE 7.0 mph11.3 kmh 30.48 in1032.2 mb - 0.00 in0.0 mm 0.00 in0.0 mm
02:15 PM 42.3°F5.7°C 29.4°F-1.4°C 60% 3.0 mph NE4.8 kmh NE 7.0 mph11.3 kmh 30.48 in1032.2 mb - 0.00 in0.0 mm 0.00 in0.0 mm
02:00 PM 41.9°F5.5°C 28.6°F-1.9°C 59% 2.2 mph NE3.5 kmh NE 10.0 mph16.1 kmh 30.48 in1032.2 mb - 0.00 in0.0 mm 0.00 in0.0 mm
01:45 PM 41.9°F5.5°C 28.2°F-2.1°C 58% 3.1 mph NE5.0 kmh NE 7.0 mph11.3 kmh 30.48 in1032.2 mb - 0.00 in0.0 mm 0.00 in0.0 mm
01:30 PM 42.0°F5.6°C 29.1°F-1.6°C 60% 0.1 mph NE0.2 kmh NE 1.0 mph1.6 kmh 30.49 in1032.5 mb - 0.00 in0.0 mm 0.00 in0.0 mm
01:15 PM 42.1°F5.6°C 29.2°F-1.6°C 60% 0.5 mph NNE0.8 kmh NNE 4.0 mph6.4 kmh 30.49 in1032.5 mb - 0.00 in0.0 mm 0.00 in0.0 mm
01:00 PM 42.3°F5.7°C 30.2°F-1.0°C 62% 1.0 mph NE1.6 kmh NE 6.0 mph9.7 kmh 30.50 in1032.8 mb - 0.00 in0.0 mm 0.00 in0.0 mm
12:45 PM 41.8°F5.4°C 29.7°F-1.3°C 62% 2.3 mph NNE3.7 kmh NNE 7.0 mph11.3 kmh 30.50 in1032.8 mb - 0.00 in0.0 mm 0.00 in0.0 mm
12:30 PM 41.5°F5.3°C 29.5°F-1.4°C 62% 1.5 mph N2.4 kmh N 4.0 mph6.4 kmh 30.50 in1032.8 mb - 0.00 in0.0 mm 0.00 in0.0 mm
12:15 PM 41.2°F5.1°C 29.2°F-1.6°C 62% 3.5 mph NE5.6 kmh NE 6.0 mph9.7 kmh 30.51 in1033.2 mb - 0.00 in0.0 mm 0.00 in0.0 mm
12:00 PM 40.7°F4.8°C 28.7°F-1.8°C 62% 1.4 mph NNE2.3 kmh NNE 2.0 mph3.2 kmh 30.51 in1033.2 mb - 0.00 in0.0 mm 0.00 in0.0 mm
11:45 AM 40.4°F4.7°C 28.4°F-2.0°C 62% 2.0 mph NNE3.2 kmh NNE 4.0 mph6.4 kmh 30.51 in1033.2 mb - 0.00 in0.0 mm 0.00 in0.0 mm
11:30 AM 39.8°F4.3°C 27.0°F-2.8°C 60% 1.0 mph NE1.6 kmh NE 5.0 mph8.0 kmh 30.52 in1033.5 mb - 0.00 in0.0 mm 0.00 in0.0 mm
11:15 AM 39.6°F4.2°C 26.8°F-2.9°C 60% 1.0 mph NE1.6 kmh NE 4.0 mph6.4 kmh 30.52 in1033.5 mb - 0.00 in0.0 mm 0.00 in0.0 mm
11:00 AM 39.2°F4.0°C 25.6°F-3.6°C 58% 0.1 mph NNE0.2 kmh NNE 1.0 mph1.6 kmh 30.52 in1033.5 mb - 0.00 in0.0 mm 0.00 in0.0 mm
10:45 AM 38.9°F3.8°C 25.4°F-3.7°C 58% 0.2 mph N0.3 kmh N 2.0 mph3.2 kmh 30.52 in1033.5 mb - 0.00 in0.0 mm 0.00 in0.0 mm
10:30 AM 38.2°F3.4°C 24.7°F-4.1°C 58% 2.2 mph N3.5 kmh N 7.0 mph11.3 kmh 30.52 in1033.5 mb - 0.00 in0.0 mm 0.00 in0.0 mm
10:15 AM 37.5°F3.1°C 25.3°F-3.7°C 61% 1.7 mph N2.7 kmh N 4.0 mph6.4 kmh 30.52 in1033.5 mb - 0.00 in0.0 mm 0.00 in0.0 mm
10:00 AM 36.7°F2.6°C 24.9°F-3.9°C 62% 0.2 mph NE0.3 kmh NE 2.0 mph3.2 kmh 30.52 in1033.5 mb - 0.00 in0.0 mm 0.00 in0.0 mm
09:45 AM 35.7°F2.1°C 25.1°F-3.8°C 65% 0.1 mph N0.2 kmh N -- 30.51 in1033.2 mb - 0.00 in0.0 mm 0.00 in0.0 mm
09:30 AM 34.4°F1.3°C 25.0°F-3.9°C 68% Calm Calm 1.0 mph1.6 kmh 30.51 in1033.2 mb - 0.00 in0.0 mm 0.00 in0.0 mm
09:15 AM 33.3°F0.7°C 24.5°F-4.2°C 70% Calm Calm -- 30.51 in1033.2 mb - 0.00 in0.0 mm 0.00 in0.0 mm
09:00 AM 32.4°F0.2°C 24.4°F-4.2°C 72% Calm Calm -- 30.51 in1033.2 mb - 0.00 in0.0 mm 0.00 in0.0 mm
08:45 AM 31.7°F-0.2°C 23.7°F-4.6°C 72% 0.5 mph NW0.8 kmh NW 3.0 mph4.8 kmh 30.51 in1033.2 mb - 0.00 in0.0 mm 0.00 in0.0 mm
08:30 AM 31.2°F-0.4°C 23.5°F-4.7°C 73% 0.5 mph NW0.8 kmh NW 3.0 mph4.8 kmh 30.51 in1033.2 mb - 0.00 in0.0 mm 0.00 in0.0 mm
08:15 AM 30.7°F-0.7°C 23.1°F-4.9°C 73% Calm Calm -- 30.50 in1032.8 mb - 0.00 in0.0 mm 0.00 in0.0 mm
08:00 AM 30.6°F-0.8°C 23.0°F-5.0°C 73% Calm Calm 1.0 mph1.6 kmh 30.50 in1032.8 mb - 0.00 in0.0 mm 0.00 in0.0 mm
07:45 AM 30.5°F-0.8°C 22.9°F-5.1°C 73% Calm Calm 1.0 mph1.6 kmh 30.50 in1032.8 mb - 0.00 in0.0 mm 0.00 in0.0 mm
07:30 AM 30.5°F-0.8°C 22.9°F-5.1°C 73% Calm Calm 1.0 mph1.6 kmh 30.50 in1032.8 mb - 0.00 in0.0 mm 0.00 in0.0 mm
07:15 AM 30.3°F-0.9°C 23.0°F-5.0°C 74% 0.8 mph WNW1.3 kmh WNW 3.0 mph4.8 kmh 30.50 in1032.8 mb - 0.00 in0.0 mm 0.00 in0.0 mm
07:00 AM 30.3°F-0.9°C 23.0°F-5.0°C 74% Calm Calm -- 30.50 in1032.8 mb - 0.00 in0.0 mm 0.00 in0.0 mm
06:45 AM 30.4°F-0.9°C 23.1°F-4.9°C 74% Calm Calm -- 30.49 in1032.5 mb - 0.00 in0.0 mm 0.00 in0.0 mm
06:30 AM 30.4°F-0.9°C 23.1°F-4.9°C 74% 0.3 mph WNW0.5 kmh WNW 1.0 mph1.6 kmh 30.49 in1032.5 mb - 0.00 in0.0 mm 0.00 in0.0 mm
06:15 AM 30.6°F-0.8°C 23.0°F-5.0°C 73% 0.2 mph NW0.3 kmh NW 2.0 mph3.2 kmh 30.49 in1032.5 mb - 0.00 in0.0 mm 0.00 in0.0 mm
06:00 AM 30.5°F-0.8°C 22.9°F-5.1°C 73% 0.1 mph NW0.2 kmh NW -- 30.48 in1032.2 mb - 0.00 in0.0 mm 0.00 in0.0 mm
05:45 AM 30.5°F-0.8°C 22.9°F-5.1°C 73% Calm Calm -- 30.48 in1032.2 mb - 0.00 in0.0 mm 0.00 in0.0 mm
05:30 AM 30.6°F-0.8°C 22.9°F-5.1°C 73% 0.1 mph WNW0.2 kmh WNW 1.0 mph1.6 kmh 30.48 in1032.2 mb - 0.00 in0.0 mm 0.00 in0.0 mm
05:15 AM 30.6°F-0.8°C 23.0°F-5.0°C 73% Calm Calm -- 30.48 in1032.2 mb - 0.00 in0.0 mm 0.00 in0.0 mm
05:00 AM 30.7°F-0.7°C 23.1°F-4.9°C 73% Calm Calm -- 30.48 in1032.2 mb - 0.00 in0.0 mm 0.00 in0.0 mm
04:45 AM 30.7°F-0.7°C 23.1°F-4.9°C 73% 0.3 mph NW0.5 kmh NW 3.0 mph4.8 kmh 30.48 in1032.2 mb - 0.00 in0.0 mm 0.00 in0.0 mm
04:30 AM 30.9°F-0.6°C 23.3°F-4.8°C 73% Calm Calm -- 30.48 in1032.2 mb - 0.00 in0.0 mm 0.00 in0.0 mm
04:15 AM 30.8°F-0.7°C 23.5°F-4.7°C 74% Calm Calm 1.0 mph1.6 kmh 30.48 in1032.2 mb - 0.00 in0.0 mm 0.00 in0.0 mm
04:00 AM 30.7°F-0.7°C 23.4°F-4.8°C 74% 0.1 mph N0.2 kmh N 1.0 mph1.6 kmh 30.48 in1032.2 mb - 0.00 in0.0 mm 0.00 in0.0 mm
03:45 AM 30.8°F-0.7°C 23.2°F-4.9°C 73% Calm Calm -- 30.49 in1032.5 mb - 0.00 in0.0 mm 0.00 in0.0 mm
03:30 AM 30.8°F-0.7°C 23.2°F-4.9°C 73% Calm Calm -- 30.49 in1032.5 mb - 0.00 in0.0 mm 0.00 in0.0 mm
03:15 AM 30.9°F-0.6°C 23.3°F-4.8°C 73% Calm Calm -- 30.49 in1032.5 mb - 0.00 in0.0 mm 0.00 in0.0 mm
03:00 AM 31.2°F-0.4°C 23.2°F-4.9°C 72% Calm Calm -- 30.49 in1032.5 mb - 0.00 in0.0 mm 0.00 in0.0 mm
02:45 AM 31.3°F-0.4°C 23.3°F-4.8°C 72% Calm Calm 1.0 mph1.6 kmh 30.49 in1032.5 mb - 0.00 in0.0 mm 0.00 in0.0 mm
02:30 AM 31.3°F-0.4°C 23.6°F-4.7°C 73% Calm Calm -- 30.49 in1032.5 mb - 0.00 in0.0 mm 0.00 in0.0 mm
02:15 AM 31.0°F-0.6°C 23.7°F-4.6°C 74% Calm Calm -- 30.49 in1032.5 mb - 0.00 in0.0 mm 0.00 in0.0 mm
02:00 AM 31.0°F-0.6°C 23.7°F-4.6°C 74% Calm Calm -- 30.49 in1032.5 mb - 0.00 in0.0 mm 0.00 in0.0 mm
01:45 AM 31.0°F-0.6°C 23.7°F-4.6°C 74% Calm Calm -- 30.49 in1032.5 mb - 0.00 in0.0 mm 0.00 in0.0 mm
01:30 AM 31.1°F-0.5°C 23.8°F-4.6°C 74% Calm Calm -- 30.49 in1032.5 mb - 0.00 in0.0 mm 0.00 in0.0 mm
01:15 AM 31.3°F-0.4°C 23.6°F-4.7°C 73% Calm Calm -- 30.49 in1032.5 mb - 0.00 in0.0 mm 0.00 in0.0 mm
01:00 AM 31.5°F-0.3°C 23.8°F-4.6°C 73% Calm Calm -- 30.49 in1032.5 mb - 0.00 in0.0 mm 0.00 in0.0 mm
12:45 AM 31.6°F-0.2°C 24.0°F-4.4°C 73% Calm Calm -- 30.49 in1032.5 mb - 0.00 in0.0 mm 0.00 in0.0 mm
12:30 AM 31.7°F-0.2°C 24.0°F-4.4°C 73% Calm Calm -- 30.49 in1032.5 mb - 0.00 in0.0 mm 0.00 in0.0 mm
12:15 AM 31.7°F-0.2°C 24.1°F-4.4°C 73% Calm Calm -- 30.49 in1032.5 mb - 0.00 in0.0 mm 0.00 in0.0 mm
12:00 AM 31.9°F-0.1°C 24.2°F-4.3°C 73% Calm Calm -- 30.49 in1032.5 mb - 0.00 in0.0 mm 0.00 in0.0 mm